sensor_id;sensor_type;location;lat;lon;timestamp;temperature;humidity
610;DHT22;292;48.800;9.216;2023-07-20T00:02:09;24.00;46.20
610;DHT22;292;48.800;9.216;2023-07-20T00:04:36;24.00;46.40
610;DHT22;292;48.800;9.216;2023-07-20T00:07:04;23.90;46.40
610;DHT22;292;48.800;9.216;2023-07-20T00:09:31;23.90;46.50
610;DHT22;292;48.800;9.216;2023-07-20T00:11:58;23.80;46.50
610;DHT22;292;48.800;9.216;2023-07-20T00:14:27;23.80;46.40
610;DHT22;292;48.800;9.216;2023-07-20T00:16:55;23.80;46.10
610;DHT22;292;48.800;9.216;2023-07-20T00:19:23;23.80;45.80
610;DHT22;292;48.800;9.216;2023-07-20T00:21:51;23.70;45.80
610;DHT22;292;48.800;9.216;2023-07-20T00:24:18;23.70;45.70
610;DHT22;292;48.800;9.216;2023-07-20T00:26:46;23.70;45.40
610;DHT22;292;48.800;9.216;2023-07-20T00:29:13;23.70;45.00
610;DHT22;292;48.800;9.216;2023-07-20T00:31:42;23.70;44.90
610;DHT22;292;48.800;9.216;2023-07-20T00:34:09;23.70;44.80
610;DHT22;292;48.800;9.216;2023-07-20T00:36:36;23.70;44.80
610;DHT22;292;48.800;9.216;2023-07-20T00:39:03;23.60;44.60
610;DHT22;292;48.800;9.216;2023-07-20T00:41:30;23.60;44.10
610;DHT22;292;48.800;9.216;2023-07-20T00:43:58;23.60;43.80
610;DHT22;292;48.800;9.216;2023-07-20T00:46:25;23.50;43.70
610;DHT22;292;48.800;9.216;2023-07-20T00:48:54;23.50;43.40
610;DHT22;292;48.800;9.216;2023-07-20T00:51:23;23.40;43.30
610;DHT22;292;48.800;9.216;2023-07-20T00:53:51;23.30;43.30
610;DHT22;292;48.800;9.216;2023-07-20T00:56:19;23.30;43.40
610;DHT22;292;48.800;9.216;2023-07-20T00:58:46;23.30;43.40
610;DHT22;292;48.800;9.216;2023-07-20T01:01:13;23.30;43.30
610;DHT22;292;48.800;9.216;2023-07-20T01:03:40;23.20;43.40
610;DHT22;292;48.800;9.216;2023-07-20T01:06:18;23.20;43.40
610;DHT22;292;48.800;9.216;2023-07-20T01:08:57;23.20;43.60
610;DHT22;292;48.800;9.216;2023-07-20T01:11:32;23.20;43.70
610;DHT22;292;48.800;9.216;2023-07-20T01:14:00;23.20;43.60
610;DHT22;292;48.800;9.216;2023-07-20T01:16:27;23.10;43.60
610;DHT22;292;48.800;9.216;2023-07-20T01:18:54;23.10;43.60
610;DHT22;292;48.800;9.216;2023-07-20T01:21:28;23.10;43.60
610;DHT22;292;48.800;9.216;2023-07-20T01:27:14;23.00;43.80
610;DHT22;292;48.800;9.216;2023-07-20T01:30:03;22.90;44.00
610;DHT22;292;48.800;9.216;2023-07-20T01:32:37;22.80;44.10
610;DHT22;292;48.800;9.216;2023-07-20T01:35:07;22.80;44.20
610;DHT22;292;48.800;9.216;2023-07-20T01:37:35;22.80;44.40
610;DHT22;292;48.800;9.216;2023-07-20T01:40:04;22.70;44.50
610;DHT22;292;48.800;9.216;2023-07-20T01:42:32;22.60;44.80
610;DHT22;292;48.800;9.216;2023-07-20T01:45:00;22.60;44.90
610;DHT22;292;48.800;9.216;2023-07-20T01:47:27;22.50;45.00
610;DHT22;292;48.800;9.216;2023-07-20T01:49:56;22.40;45.30
610;DHT22;292;48.800;9.216;2023-07-20T01:52:23;22.40;45.40
610;DHT22;292;48.800;9.216;2023-07-20T01:54:50;22.30;45.60
610;DHT22;292;48.800;9.216;2023-07-20T01:57:17;22.30;45.70
610;DHT22;292;48.800;9.216;2023-07-20T01:59:44;22.20;46.10
610;DHT22;292;48.800;9.216;2023-07-20T02:02:11;22.10;46.40
610;DHT22;292;48.800;9.216;2023-07-20T02:04:38;22.10;46.50
610;DHT22;292;48.800;9.216;2023-07-20T02:07:06;22.10;46.60
610;DHT22;292;48.800;9.216;2023-07-20T02:09:33;22.00;46.80
610;DHT22;292;48.800;9.216;2023-07-20T02:12:00;22.00;46.90
610;DHT22;292;48.800;9.216;2023-07-20T02:14:27;22.00;47.00
610;DHT22;292;48.800;9.216;2023-07-20T02:16:55;22.00;47.20
610;DHT22;292;48.800;9.216;2023-07-20T02:19:25;21.90;47.30
610;DHT22;292;48.800;9.216;2023-07-20T02:21:52;21.90;47.40
610;DHT22;292;48.800;9.216;2023-07-20T02:24:21;21.90;47.60
610;DHT22;292;48.800;9.216;2023-07-20T02:26:48;21.90;47.60
610;DHT22;292;48.800;9.216;2023-07-20T02:29:15;21.90;47.70
610;DHT22;292;48.800;9.216;2023-07-20T02:31:42;21.90;47.80
610;DHT22;292;48.800;9.216;2023-07-20T02:34:09;21.90;48.00
610;DHT22;292;48.800;9.216;2023-07-20T02:36:36;21.90;48.00
610;DHT22;292;48.800;9.216;2023-07-20T02:39:03;21.90;48.10
610;DHT22;292;48.800;9.216;2023-07-20T02:41:33;21.90;48.10
610;DHT22;292;48.800;9.216;2023-07-20T02:44:00;21.80;48.10
610;DHT22;292;48.800;9.216;2023-07-20T02:46:29;21.80;48.20
610;DHT22;292;48.800;9.216;2023-07-20T02:48:56;21.80;48.40
610;DHT22;292;48.800;9.216;2023-07-20T02:51:23;21.80;48.40
610;DHT22;292;48.800;9.216;2023-07-20T02:53:50;21.80;48.50
610;DHT22;292;48.800;9.216;2023-07-20T02:56:17;21.80;48.50
610;DHT22;292;48.800;9.216;2023-07-20T02:58:46;21.70;48.60
610;DHT22;292;48.800;9.216;2023-07-20T03:01:13;21.70;48.80
610;DHT22;292;48.800;9.216;2023-07-20T03:03:40;21.60;48.90
610;DHT22;292;48.800;9.216;2023-07-20T03:06:12;21.60;48.90
610;DHT22;292;48.800;9.216;2023-07-20T03:08:40;21.60;49.00
610;DHT22;292;48.800;9.216;2023-07-20T03:11:13;21.50;49.20
610;DHT22;292;48.800;9.216;2023-07-20T03:13:40;21.50;49.30
610;DHT22;292;48.800;9.216;2023-07-20T03:16:10;21.50;49.30
610;DHT22;292;48.800;9.216;2023-07-20T03:18:38;21.50;49.40
610;DHT22;292;48.800;9.216;2023-07-20T03:21:05;21.50;49.60
610;DHT22;292;48.800;9.216;2023-07-20T03:23:33;21.50;49.60
610;DHT22;292;48.800;9.216;2023-07-20T03:26:00;21.50;49.60
610;DHT22;292;48.800;9.216;2023-07-20T03:28:27;21.50;49.70
610;DHT22;292;48.800;9.216;2023-07-20T03:30:54;21.50;49.70
610;DHT22;292;48.800;9.216;2023-07-20T03:33:26;21.50;49.70
610;DHT22;292;48.800;9.216;2023-07-20T03:35:54;21.50;49.80
610;DHT22;292;48.800;9.216;2023-07-20T03:38:22;21.50;49.80
610;DHT22;292;48.800;9.216;2023-07-20T03:40:50;21.40;50.00
610;DHT22;292;48.800;9.216;2023-07-20T03:43:17;21.40;50.00
610;DHT22;292;48.800;9.216;2023-07-20T03:45:51;21.40;50.10
610;DHT22;292;48.800;9.216;2023-07-20T03:48:19;21.40;50.40
610;DHT22;292;48.800;9.216;2023-07-20T03:50:50;21.30;50.40
610;DHT22;292;48.800;9.216;2023-07-20T03:53:17;21.30;50.50
610;DHT22;292;48.800;9.216;2023-07-20T03:55:45;21.30;50.50
610;DHT22;292;48.800;9.216;2023-07-20T03:58:12;21.30;50.60
610;DHT22;292;48.800;9.216;2023-07-20T04:00:39;21.30;50.80
610;DHT22;292;48.800;9.216;2023-07-20T04:03:06;21.30;50.90
610;DHT22;292;48.800;9.216;2023-07-20T04:05:34;21.30;51.00
610;DHT22;292;48.800;9.216;2023-07-20T04:08:03;21.30;50.90
610;DHT22;292;48.800;9.216;2023-07-20T04:10:30;21.30;51.00
610;DHT22;292;48.800;9.216;2023-07-20T04:12:56;21.30;51.00
610;DHT22;292;48.800;9.216;2023-07-20T04:15:24;21.20;51.00
610;DHT22;292;48.800;9.216;2023-07-20T04:17:50;21.20;51.20
610;DHT22;292;48.800;9.216;2023-07-20T04:20:18;21.20;51.20
610;DHT22;292;48.800;9.216;2023-07-20T04:22:45;21.20;51.40
610;DHT22;292;48.800;9.216;2023-07-20T04:25:13;21.20;51.40
610;DHT22;292;48.800;9.216;2023-07-20T04:27:40;21.20;51.60
610;DHT22;292;48.800;9.216;2023-07-20T04:30:08;21.20;51.60
610;DHT22;292;48.800;9.216;2023-07-20T04:32:35;21.30;51.60
610;DHT22;292;48.800;9.216;2023-07-20T04:35:06;21.30;51.60
610;DHT22;292;48.800;9.216;2023-07-20T04:37:34;21.30;51.70
610;DHT22;292;48.800;9.216;2023-07-20T04:40:01;21.30;51.80
610;DHT22;292;48.800;9.216;2023-07-20T04:42:30;21.30;52.00
610;DHT22;292;48.800;9.216;2023-07-20T04:44:57;21.30;52.10
610;DHT22;292;48.800;9.216;2023-07-20T04:47:24;21.30;52.10
610;DHT22;292;48.800;9.216;2023-07-20T04:49:52;21.30;52.10
610;DHT22;292;48.800;9.216;2023-07-20T04:52:18;21.30;52.10
610;DHT22;292;48.800;9.216;2023-07-20T04:54:46;21.30;52.20
610;DHT22;292;48.800;9.216;2023-07-20T04:57:14;21.30;52.20
610;DHT22;292;48.800;9.216;2023-07-20T04:59:42;21.30;52.20
610;DHT22;292;48.800;9.216;2023-07-20T05:02:09;21.40;52.20
610;DHT22;292;48.800;9.216;2023-07-20T05:04:36;21.40;52.40
610;DHT22;292;48.800;9.216;2023-07-20T05:07:04;21.40;52.20
610;DHT22;292;48.800;9.216;2023-07-20T05:09:31;21.50;52.20
610;DHT22;292;48.800;9.216;2023-07-20T05:11:58;21.50;52.20
610;DHT22;292;48.800;9.216;2023-07-20T05:14:25;21.50;52.10
610;DHT22;292;48.800;9.216;2023-07-20T05:16:54;21.50;52.10
610;DHT22;292;48.800;9.216;2023-07-20T05:19:21;21.50;52.10
610;DHT22;292;48.800;9.216;2023-07-20T05:21:48;21.50;52.10
610;DHT22;292;48.800;9.216;2023-07-20T05:24:15;21.50;52.10
610;DHT22;292;48.800;9.216;2023-07-20T05:26:42;21.60;52.10
610;DHT22;292;48.800;9.216;2023-07-20T05:29:09;21.70;52.10
610;DHT22;292;48.800;9.216;2023-07-20T05:31:36;21.70;52.00
610;DHT22;292;48.800;9.216;2023-07-20T05:34:04;21.80;52.00
610;DHT22;292;48.800;9.216;2023-07-20T05:36:31;21.90;52.00
610;DHT22;292;48.800;9.216;2023-07-20T05:38:58;21.90;51.80
610;DHT22;292;48.800;9.216;2023-07-20T05:41:25;21.90;51.80
610;DHT22;292;48.800;9.216;2023-07-20T05:43:53;22.00;51.70
610;DHT22;292;48.800;9.216;2023-07-20T05:46:20;22.10;51.60
610;DHT22;292;48.800;9.216;2023-07-20T05:48:47;22.20;51.30
610;DHT22;292;48.800;9.216;2023-07-20T05:51:15;22.20;51.20
610;DHT22;292;48.800;9.216;2023-07-20T05:53:42;22.30;51.00
610;DHT22;292;48.800;9.216;2023-07-20T05:56:09;22.40;50.90
610;DHT22;292;48.800;9.216;2023-07-20T05:58:36;22.40;50.80
610;DHT22;292;48.800;9.216;2023-07-20T06:01:04;22.50;50.60
610;DHT22;292;48.800;9.216;2023-07-20T06:03:32;22.50;50.40
610;DHT22;292;48.800;9.216;2023-07-20T06:06:00;22.50;50.20
610;DHT22;292;48.800;9.216;2023-07-20T06:08:29;22.60;50.10
610;DHT22;292;48.800;9.216;2023-07-20T06:10:56;22.70;50.20
610;DHT22;292;48.800;9.216;2023-07-20T06:13:23;22.70;50.00
610;DHT22;292;48.800;9.216;2023-07-20T06:15:53;22.80;49.80
610;DHT22;292;48.800;9.216;2023-07-20T06:18:21;22.80;49.70
610;DHT22;292;48.800;9.216;2023-07-20T06:20:49;22.90;49.60
610;DHT22;292;48.800;9.216;2023-07-20T06:23:17;22.90;49.40
610;DHT22;292;48.800;9.216;2023-07-20T06:25:45;23.00;49.40
610;DHT22;292;48.800;9.216;2023-07-20T06:28:13;23.00;49.40
610;DHT22;292;48.800;9.216;2023-07-20T06:30:40;23.00;49.40
610;DHT22;292;48.800;9.216;2023-07-20T06:33:07;23.10;49.40
610;DHT22;292;48.800;9.216;2023-07-20T06:35:34;23.10;49.40
610;DHT22;292;48.800;9.216;2023-07-20T06:38:01;23.10;49.60
610;DHT22;292;48.800;9.216;2023-07-20T06:40:29;23.00;49.60
610;DHT22;292;48.800;9.216;2023-07-20T06:42:58;23.00;50.00
610;DHT22;292;48.800;9.216;2023-07-20T06:45:25;23.00;49.70
610;DHT22;292;48.800;9.216;2023-07-20T06:47:52;23.00;50.00
610;DHT22;292;48.800;9.216;2023-07-20T06:50:19;23.00;50.10
610;DHT22;292;48.800;9.216;2023-07-20T06:52:46;23.00;50.00
610;DHT22;292;48.800;9.216;2023-07-20T06:55:14;23.10;49.80
610;DHT22;292;48.800;9.216;2023-07-20T06:57:41;23.10;50.10
610;DHT22;292;48.800;9.216;2023-07-20T07:00:11;23.10;50.10
610;DHT22;292;48.800;9.216;2023-07-20T07:02:38;23.20;50.10
610;DHT22;292;48.800;9.216;2023-07-20T07:05:05;23.20;50.20
610;DHT22;292;48.800;9.216;2023-07-20T07:07:32;23.20;50.10
610;DHT22;292;48.800;9.216;2023-07-20T07:10:00;23.30;50.10
610;DHT22;292;48.800;9.216;2023-07-20T07:12:30;23.30;50.00
610;DHT22;292;48.800;9.216;2023-07-20T07:14:57;23.40;49.60
610;DHT22;292;48.800;9.216;2023-07-20T07:17:27;23.40;49.60
610;DHT22;292;48.800;9.216;2023-07-20T07:19:54;23.40;49.60
610;DHT22;292;48.800;9.216;2023-07-20T07:22:22;23.40;49.40
610;DHT22;292;48.800;9.216;2023-07-20T07:24:49;23.40;49.60
610;DHT22;292;48.800;9.216;2023-07-20T07:27:16;23.30;49.60
610;DHT22;292;48.800;9.216;2023-07-20T07:29:43;23.20;49.70
610;DHT22;292;48.800;9.216;2023-07-20T07:32:11;23.20;49.70
610;DHT22;292;48.800;9.216;2023-07-20T07:34:39;23.20;49.40
610;DHT22;292;48.800;9.216;2023-07-20T07:37:06;23.20;49.30
610;DHT22;292;48.800;9.216;2023-07-20T07:39:33;23.30;49.20
610;DHT22;292;48.800;9.216;2023-07-20T07:42:01;23.30;49.30
610;DHT22;292;48.800;9.216;2023-07-20T07:44:28;23.30;49.40
610;DHT22;292;48.800;9.216;2023-07-20T07:46:55;23.30;49.40
610;DHT22;292;48.800;9.216;2023-07-20T07:49:22;23.40;49.20
610;DHT22;292;48.800;9.216;2023-07-20T07:51:51;23.40;49.30
610;DHT22;292;48.800;9.216;2023-07-20T07:54:17;23.30;49.40
610;DHT22;292;48.800;9.216;2023-07-20T07:56:45;23.40;49.30
610;DHT22;292;48.800;9.216;2023-07-20T07:59:11;23.40;48.90
610;DHT22;292;48.800;9.216;2023-07-20T08:01:38;23.50;48.60
610;DHT22;292;48.800;9.216;2023-07-20T08:04:05;23.60;48.20
610;DHT22;292;48.800;9.216;2023-07-20T08:06:32;23.60;48.10
610;DHT22;292;48.800;9.216;2023-07-20T08:09:01;23.70;48.00
610;DHT22;292;48.800;9.216;2023-07-20T08:11:28;23.70;47.80
610;DHT22;292;48.800;9.216;2023-07-20T08:13:59;23.70;47.70
610;DHT22;292;48.800;9.216;2023-07-20T08:16:26;23.60;47.70
610;DHT22;292;48.800;9.216;2023-07-20T08:18:53;23.70;47.60
610;DHT22;292;48.800;9.216;2023-07-20T08:21:20;23.70;47.30
610;DHT22;292;48.800;9.216;2023-07-20T08:23:47;23.80;47.00
610;DHT22;292;48.800;9.216;2023-07-20T08:26:15;23.70;47.20
610;DHT22;292;48.800;9.216;2023-07-20T08:28:44;23.80;47.00
610;DHT22;292;48.800;9.216;2023-07-20T08:31:11;23.80;46.80
610;DHT22;292;48.800;9.216;2023-07-20T08:33:38;23.90;46.60
610;DHT22;292;48.800;9.216;2023-07-20T08:36:05;24.00;46.50
610;DHT22;292;48.800;9.216;2023-07-20T08:38:33;23.90;46.50
610;DHT22;292;48.800;9.216;2023-07-20T08:41:00;23.90;46.40
610;DHT22;292;48.800;9.216;2023-07-20T08:43:30;23.80;46.40
610;DHT22;292;48.800;9.216;2023-07-20T08:45:58;23.80;46.40
610;DHT22;292;48.800;9.216;2023-07-20T08:48:27;23.80;46.60
610;DHT22;292;48.800;9.216;2023-07-20T08:50:55;23.80;46.90
610;DHT22;292;48.800;9.216;2023-07-20T08:53:23;23.80;46.80
610;DHT22;292;48.800;9.216;2023-07-20T08:55:51;23.90;46.50
610;DHT22;292;48.800;9.216;2023-07-20T08:58:18;23.90;46.10
610;DHT22;292;48.800;9.216;2023-07-20T09:00:47;24.00;45.70
610;DHT22;292;48.800;9.216;2023-07-20T09:03:16;24.10;45.40
610;DHT22;292;48.800;9.216;2023-07-20T09:05:43;24.10;45.00
610;DHT22;292;48.800;9.216;2023-07-20T09:08:11;24.20;45.00
610;DHT22;292;48.800;9.216;2023-07-20T09:10:38;24.20;45.20
610;DHT22;292;48.800;9.216;2023-07-20T09:13:05;24.20;45.00
610;DHT22;292;48.800;9.216;2023-07-20T09:15:32;24.20;45.20
610;DHT22;292;48.800;9.216;2023-07-20T09:18:02;24.20;45.20
610;DHT22;292;48.800;9.216;2023-07-20T09:20:32;24.30;45.20
610;DHT22;292;48.800;9.216;2023-07-20T09:23:00;24.30;44.80
610;DHT22;292;48.800;9.216;2023-07-20T09:25:30;24.40;44.20
610;DHT22;292;48.800;9.216;2023-07-20T09:28:02;24.40;43.60
610;DHT22;292;48.800;9.216;2023-07-20T09:30:29;24.30;43.30
610;DHT22;292;48.800;9.216;2023-07-20T09:32:56;24.30;43.30
610;DHT22;292;48.800;9.216;2023-07-20T09:35:25;24.40;43.20
610;DHT22;292;48.800;9.216;2023-07-20T09:37:57;24.50;43.00
610;DHT22;292;48.800;9.216;2023-07-20T09:40:25;24.50;43.00
610;DHT22;292;48.800;9.216;2023-07-20T09:42:53;24.50;43.00
610;DHT22;292;48.800;9.216;2023-07-20T09:45:29;24.50;42.80
610;DHT22;292;48.800;9.216;2023-07-20T09:48:03;24.50;42.80
610;DHT22;292;48.800;9.216;2023-07-20T09:50:32;24.50;42.40
610;DHT22;292;48.800;9.216;2023-07-20T09:53:00;24.50;42.20
610;DHT22;292;48.800;9.216;2023-07-20T09:55:28;24.50;42.50
610;DHT22;292;48.800;9.216;2023-07-20T09:57:56;24.60;42.20
610;DHT22;292;48.800;9.216;2023-07-20T10:00:23;24.60;41.70
610;DHT22;292;48.800;9.216;2023-07-20T10:02:52;24.70;41.30
610;DHT22;292;48.800;9.216;2023-07-20T10:05:22;24.60;40.60
610;DHT22;292;48.800;9.216;2023-07-20T10:07:52;24.60;40.50
610;DHT22;292;48.800;9.216;2023-07-20T10:10:20;24.50;40.60
610;DHT22;292;48.800;9.216;2023-07-20T10:12:48;24.60;40.60
610;DHT22;292;48.800;9.216;2023-07-20T10:15:20;24.60;40.60
610;DHT22;292;48.800;9.216;2023-07-20T10:18:02;24.70;40.20
610;DHT22;292;48.800;9.216;2023-07-20T10:20:30;24.70;39.60
610;DHT22;292;48.800;9.216;2023-07-20T10:23:00;24.70;39.70
610;DHT22;292;48.800;9.216;2023-07-20T10:25:28;24.70;39.00
610;DHT22;292;48.800;9.216;2023-07-20T10:28:00;24.70;38.90
610;DHT22;292;48.800;9.216;2023-07-20T10:30:27;24.70;38.50
610;DHT22;292;48.800;9.216;2023-07-20T10:32:54;24.80;38.20
610;DHT22;292;48.800;9.216;2023-07-20T10:35:21;24.90;38.10
610;DHT22;292;48.800;9.216;2023-07-20T10:37:50;25.00;38.00
610;DHT22;292;48.800;9.216;2023-07-20T10:40:33;25.00;37.20
610;DHT22;292;48.800;9.216;2023-07-20T10:43:04;25.00;37.00
610;DHT22;292;48.800;9.216;2023-07-20T10:45:50;25.00;36.90
610;DHT22;292;48.800;9.216;2023-07-20T10:48:19;25.00;36.90
610;DHT22;292;48.800;9.216;2023-07-20T10:51:10;25.10;36.90
610;DHT22;292;48.800;9.216;2023-07-20T10:53:37;25.20;36.90
610;DHT22;292;48.800;9.216;2023-07-20T10:56:12;25.20;36.60
610;DHT22;292;48.800;9.216;2023-07-20T10:58:39;25.20;36.20
610;DHT22;292;48.800;9.216;2023-07-20T11:01:07;25.20;35.60
610;DHT22;292;48.800;9.216;2023-07-20T11:03:36;25.10;35.80
610;DHT22;292;48.800;9.216;2023-07-20T11:06:30;25.20;36.00
610;DHT22;292;48.800;9.216;2023-07-20T11:09:05;25.20;35.80
610;DHT22;292;48.800;9.216;2023-07-20T11:11:34;25.20;36.00
610;DHT22;292;48.800;9.216;2023-07-20T11:14:03;25.30;36.00
610;DHT22;292;48.800;9.216;2023-07-20T11:16:41;25.40;35.60
610;DHT22;292;48.800;9.216;2023-07-20T11:19:16;25.50;35.30
610;DHT22;292;48.800;9.216;2023-07-20T11:21:44;25.50;34.80
610;DHT22;292;48.800;9.216;2023-07-20T11:24:12;25.60;34.50
610;DHT22;292;48.800;9.216;2023-07-20T11:26:42;25.60;34.00
610;DHT22;292;48.800;9.216;2023-07-20T11:29:09;25.60;33.80
610;DHT22;292;48.800;9.216;2023-07-20T11:31:38;25.70;34.10
610;DHT22;292;48.800;9.216;2023-07-20T11:34:07;25.80;34.10
610;DHT22;292;48.800;9.216;2023-07-20T11:36:34;25.90;33.70
610;DHT22;292;48.800;9.216;2023-07-20T11:39:02;26.00;33.60
610;DHT22;292;48.800;9.216;2023-07-20T11:41:31;26.00;33.30
610;DHT22;292;48.800;9.216;2023-07-20T11:44:00;26.00;33.30
610;DHT22;292;48.800;9.216;2023-07-20T11:46:28;26.00;33.20
610;DHT22;292;48.800;9.216;2023-07-20T11:48:57;26.00;32.80
610;DHT22;292;48.800;9.216;2023-07-20T11:51:26;26.00;33.00
610;DHT22;292;48.800;9.216;2023-07-20T11:53:54;26.10;32.80
610;DHT22;292;48.800;9.216;2023-07-20T11:56:23;26.10;32.40
610;DHT22;292;48.800;9.216;2023-07-20T11:58:50;26.20;32.10
610;DHT22;292;48.800;9.216;2023-07-20T12:01:19;26.20;32.10
610;DHT22;292;48.800;9.216;2023-07-20T12:03:48;26.20;32.10
610;DHT22;292;48.800;9.216;2023-07-20T12:06:16;26.30;32.20
610;DHT22;292;48.800;9.216;2023-07-20T12:08:44;26.40;32.10
610;DHT22;292;48.800;9.216;2023-07-20T12:11:11;26.50;31.30
610;DHT22;292;48.800;9.216;2023-07-20T12:13:41;26.50;31.40
610;DHT22;292;48.800;9.216;2023-07-20T12:16:10;26.50;31.40
610;DHT22;292;48.800;9.216;2023-07-20T12:18:40;26.60;30.50
610;DHT22;292;48.800;9.216;2023-07-20T12:21:07;26.50;30.40
610;DHT22;292;48.800;9.216;2023-07-20T12:23:39;26.50;30.60
610;DHT22;292;48.800;9.216;2023-07-20T12:26:07;26.50;30.40
610;DHT22;292;48.800;9.216;2023-07-20T12:28:38;26.50;30.10
610;DHT22;292;48.800;9.216;2023-07-20T12:31:06;26.50;30.20
610;DHT22;292;48.800;9.216;2023-07-20T12:33:33;26.60;30.50
610;DHT22;292;48.800;9.216;2023-07-20T12:36:02;26.70;30.50
610;DHT22;292;48.800;9.216;2023-07-20T12:38:29;26.70;30.60
610;DHT22;292;48.800;9.216;2023-07-20T12:40:56;26.80;30.90
610;DHT22;292;48.800;9.216;2023-07-20T12:43:24;26.90;30.60
610;DHT22;292;48.800;9.216;2023-07-20T12:45:51;26.90;30.40
610;DHT22;292;48.800;9.216;2023-07-20T12:48:18;26.90;30.40
610;DHT22;292;48.800;9.216;2023-07-20T12:50:45;26.90;30.40
610;DHT22;292;48.800;9.216;2023-07-20T12:53:14;26.80;30.50
610;DHT22;292;48.800;9.216;2023-07-20T12:55:41;26.80;30.80
610;DHT22;292;48.800;9.216;2023-07-20T12:58:09;26.90;30.80
610;DHT22;292;48.800;9.216;2023-07-20T13:00:36;26.90;30.50
610;DHT22;292;48.800;9.216;2023-07-20T13:03:03;27.00;30.50
610;DHT22;292;48.800;9.216;2023-07-20T13:05:32;27.10;30.40
610;DHT22;292;48.800;9.216;2023-07-20T13:08:00;27.20;29.60
610;DHT22;292;48.800;9.216;2023-07-20T13:10:29;27.10;28.80
610;DHT22;292;48.800;9.216;2023-07-20T13:12:56;27.10;29.10
610;DHT22;292;48.800;9.216;2023-07-20T13:15:29;27.20;29.30
610;DHT22;292;48.800;9.216;2023-07-20T13:17:57;27.20;29.20
610;DHT22;292;48.800;9.216;2023-07-20T13:20:25;27.30;29.30
610;DHT22;292;48.800;9.216;2023-07-20T13:22:52;27.30;29.40
610;DHT22;292;48.800;9.216;2023-07-20T13:25:20;27.40;28.90
610;DHT22;292;48.800;9.216;2023-07-20T13:27:51;27.40;28.90
610;DHT22;292;48.800;9.216;2023-07-20T13:30:18;27.50;28.70
610;DHT22;292;48.800;9.216;2023-07-20T13:32:47;27.60;28.30
610;DHT22;292;48.800;9.216;2023-07-20T13:35:14;27.60;28.20
610;DHT22;292;48.800;9.216;2023-07-20T13:37:41;27.60;28.30
610;DHT22;292;48.800;9.216;2023-07-20T13:40:09;27.60;27.90
610;DHT22;292;48.800;9.216;2023-07-20T13:42:38;27.50;27.70
610;DHT22;292;48.800;9.216;2023-07-20T13:45:08;27.50;27.80
610;DHT22;292;48.800;9.216;2023-07-20T13:47:35;27.50;28.00
610;DHT22;292;48.800;9.216;2023-07-20T13:50:03;27.60;28.10
610;DHT22;292;48.800;9.216;2023-07-20T13:52:30;27.70;28.20
610;DHT22;292;48.800;9.216;2023-07-20T13:54:57;27.80;28.20
610;DHT22;292;48.800;9.216;2023-07-20T13:57:24;27.80;28.30
610;DHT22;292;48.800;9.216;2023-07-20T13:59:51;27.90;28.30
610;DHT22;292;48.800;9.216;2023-07-20T14:02:20;27.90;28.30
610;DHT22;292;48.800;9.216;2023-07-20T14:04:47;28.00;28.30
610;DHT22;292;48.800;9.216;2023-07-20T14:07:14;28.00;27.90
610;DHT22;292;48.800;9.216;2023-07-20T14:09:40;28.10;27.90
610;DHT22;292;48.800;9.216;2023-07-20T14:12:08;28.10;27.90
610;DHT22;292;48.800;9.216;2023-07-20T14:14:37;28.20;27.80
610;DHT22;292;48.800;9.216;2023-07-20T14:17:05;28.30;27.80
610;DHT22;292;48.800;9.216;2023-07-20T14:19:33;28.40;27.80
610;DHT22;292;48.800;9.216;2023-07-20T14:22:00;28.40;27.40
610;DHT22;292;48.800;9.216;2023-07-20T14:24:29;28.40;27.30
610;DHT22;292;48.800;9.216;2023-07-20T14:26:56;28.50;27.30
610;DHT22;292;48.800;9.216;2023-07-20T14:29:23;28.50;27.00
610;DHT22;292;48.800;9.216;2023-07-20T14:31:50;28.50;27.00
610;DHT22;292;48.800;9.216;2023-07-20T14:34:18;28.50;26.70
610;DHT22;292;48.800;9.216;2023-07-20T14:36:47;28.60;26.60
610;DHT22;292;48.800;9.216;2023-07-20T14:39:15;28.60;26.50
610;DHT22;292;48.800;9.216;2023-07-20T14:41:42;28.60;26.50
610;DHT22;292;48.800;9.216;2023-07-20T14:44:09;28.70;26.30
610;DHT22;292;48.800;9.216;2023-07-20T14:46:36;28.70;26.20
610;DHT22;292;48.800;9.216;2023-07-20T14:49:06;28.80;26.00
610;DHT22;292;48.800;9.216;2023-07-20T14:51:33;28.80;25.90
610;DHT22;292;48.800;9.216;2023-07-20T14:54:03;28.90;25.90
610;DHT22;292;48.800;9.216;2023-07-20T14:56:30;29.00;25.70
610;DHT22;292;48.800;9.216;2023-07-20T14:58:57;29.10;25.60
610;DHT22;292;48.800;9.216;2023-07-20T15:01:26;29.10;25.50
610;DHT22;292;48.800;9.216;2023-07-20T15:03:53;29.10;25.00
610;DHT22;292;48.800;9.216;2023-07-20T15:06:20;29.10;25.20
610;DHT22;292;48.800;9.216;2023-07-20T15:08:47;29.10;25.30
610;DHT22;292;48.800;9.216;2023-07-20T15:11:16;29.10;25.30
610;DHT22;292;48.800;9.216;2023-07-20T15:13:43;29.20;25.30
610;DHT22;292;48.800;9.216;2023-07-20T15:16:10;29.20;25.20
610;DHT22;292;48.800;9.216;2023-07-20T15:18:38;29.30;25.10
610;DHT22;292;48.800;9.216;2023-07-20T15:21:05;29.30;25.00
610;DHT22;292;48.800;9.216;2023-07-20T15:23:32;29.30;25.10
610;DHT22;292;48.800;9.216;2023-07-20T15:26:00;29.40;25.10
610;DHT22;292;48.800;9.216;2023-07-20T15:28:28;29.40;25.00
610;DHT22;292;48.800;9.216;2023-07-20T15:31:01;29.50;24.90
610;DHT22;292;48.800;9.216;2023-07-20T15:33:29;29.50;24.90
610;DHT22;292;48.800;9.216;2023-07-20T15:35:56;29.50;24.90
610;DHT22;292;48.800;9.216;2023-07-20T15:38:23;29.60;25.20
610;DHT22;292;48.800;9.216;2023-07-20T15:40:51;29.60;24.80
610;DHT22;292;48.800;9.216;2023-07-20T15:43:18;29.60;25.00
610;DHT22;292;48.800;9.216;2023-07-20T15:45:47;29.60;24.70
610;DHT22;292;48.800;9.216;2023-07-20T15:48:15;29.60;24.60
610;DHT22;292;48.800;9.216;2023-07-20T15:50:42;29.60;24.70
610;DHT22;292;48.800;9.216;2023-07-20T15:53:10;29.60;24.80
610;DHT22;292;48.800;9.216;2023-07-20T15:55:37;29.60;24.70
610;DHT22;292;48.800;9.216;2023-07-20T15:58:04;29.50;24.40
610;DHT22;292;48.800;9.216;2023-07-20T16:00:31;29.60;24.60
610;DHT22;292;48.800;9.216;2023-07-20T16:03:00;29.60;24.70
610;DHT22;292;48.800;9.216;2023-07-20T16:05:27;29.60;24.60
610;DHT22;292;48.800;9.216;2023-07-20T16:07:55;29.60;24.60
610;DHT22;292;48.800;9.216;2023-07-20T16:10:22;29.60;24.80
610;DHT22;292;48.800;9.216;2023-07-20T16:12:49;29.60;24.90
610;DHT22;292;48.800;9.216;2023-07-20T16:15:16;29.60;24.80
610;DHT22;292;48.800;9.216;2023-07-20T16:17:44;29.60;24.80
610;DHT22;292;48.800;9.216;2023-07-20T16:20:14;29.50;24.60
610;DHT22;292;48.800;9.216;2023-07-20T16:22:41;29.40;24.70
610;DHT22;292;48.800;9.216;2023-07-20T16:25:10;29.40;24.90
610;DHT22;292;48.800;9.216;2023-07-20T16:27:37;29.30;25.00
610;DHT22;292;48.800;9.216;2023-07-20T16:30:05;29.20;24.90
610;DHT22;292;48.800;9.216;2023-07-20T16:32:32;29.20;24.90
610;DHT22;292;48.800;9.216;2023-07-20T16:35:05;29.10;24.90
610;DHT22;292;48.800;9.216;2023-07-20T16:37:34;29.10;24.90
610;DHT22;292;48.800;9.216;2023-07-20T16:40:02;29.10;25.00
610;DHT22;292;48.800;9.216;2023-07-20T16:42:30;29.00;24.90
610;DHT22;292;48.800;9.216;2023-07-20T16:44:57;29.00;24.90